METAR Data
IDs: Format: Raw Decoded Include TAF

Data at: 2058 UTC 18 Sep 2018

KPKV 182055Z AUTO 10005KT 10SM CLR 32/24 A2992 RMK AO2 T03200235
KPKV 182035Z AUTO 09004KT 10SM CLR 32/23 A2993 RMK AO2 T03220230
KPKV 182015Z AUTO 10004KT 10SM CLR 32/22 A2993 RMK AO2 T03200224
KPKV 182000Z AUTO 10004KT 10SM CLR 32/23 A2994 RMK AO2 T03170230
KPKV 181935Z AUTO 07004KT 10SM CLR 32/23 A2995 RMK AO2 T03220225
KPKV 181920Z AUTO 09005KT 10SM CLR 33/23 A2995 RMK AO2 T03270231
KPKV 181835Z AUTO 09004KT 10SM CLR 32/23 A2997 RMK AO2 T03200231
KPKV 181815Z AUTO 10005KT 10SM CLR 32/23 A2998 RMK AO2 T03200233
KPKV 181755Z AUTO 06004KT 10SM CLR 31/26 A2999 RMK AO2 T03080256 10318 20242
KPKV 181735Z AUTO 03003KT 10SM SCT020 SCT026 SCT031 32/26 A3000 RMK AO2 T03160257
KPKV 181715Z AUTO 03003KT 10SM SCT018 SCT022 OVC029 32/26 A3001 RMK AO2 T03160258
KPKV 181655Z AUTO 00000KT 10SM BKN029 BKN038 31/24 A3001 RMK AO2 T03100242
KPKV 181635Z AUTO 00000KT 10SM SCT027 SCT037 SCT048 31/24 A3001 RMK AO2 T03080241
KPKV 181615Z AUTO 00000KT 10SM SCT037 SCT048 30/25 A3002 RMK AO2 T03020245
KPKV 181555Z AUTO 00000KT 7SM SCT014 SCT050 31/26 A3002 RMK AO2 T03060258
KPKV 181535Z AUTO 00000KT 5SM BR SCT009 SCT014 28/27 A3002 RMK AO2 T02770267
KPKV 181515Z AUTO 00000KT 10SM SCT006 28/27 A3002 RMK AO2 T02760267
KPKV 181455Z AUTO 00000KT 5SM BR SCT001 27/27 A3001 RMK AO2 T02740265
KPKV 181435Z AUTO 00000KT 2SM BR OVC001 27/26 A3001 RMK AO2 T02720263
KPKV 181415Z AUTO 00000KT 1/4SM FG OVC001 26/25 A3001 RMK AO2 T02610252
KPKV 181355Z AUTO 00000KT 1/4SM FG OVC001 26/25 A3001 RMK AO2 T02560247
KPKV 181335Z AUTO 00000KT M1/4SM FG OVC001 25/25 A3000 RMK AO2 T02540245
KPKV 181315Z AUTO 00000KT 1/4SM FG OVC001 25/24 A3000 RMK AO2 T02480240
KPKV 181250Z AUTO 00000KT M1/4SM FG OVC001 24/24 A3000 RMK AO2 T02440235
KPKV 181235Z AUTO 00000KT M1/4SM FG OVC001 24/23 A3000 RMK AO2 T02420234
KPKV 181220Z AUTO 00000KT 1/4SM FG OVC001 24/23 A3000 RMK AO2 T02430234
KPKV 181200Z AUTO 00000KT 1/4SM FG OVC001 25/24 A2999 RMK AO2 T02460237
KPKV 181130Z AUTO 00000KT 1/4SM FG OVC001 24/24 A2998 RMK AO2 T02430235
KPKV 181115Z AUTO 00000KT 1/4SM FG OVC001 25/24 A2998 RMK AO2 T02460236
KPKV 181035Z AUTO 00000KT 1/2SM FG BKN001 24/23 A2997 RMK AO2 T02430233
KPKV 181015Z AUTO 00000KT 1/4SM FG OVC001 24/23 A2997 RMK AO2 T02430233
KPKV 180955Z AUTO 00000KT 3/4SM BR VV005 25/24 A2996 RMK AO2 T02470237
KPKV 180930Z AUTO 00000KT 4SM BR CLR 25/24 A2996 RMK AO2 T02480237
KPKV 180920Z AUTO 00000KT 7SM CLR 25/24 A2996 RMK AO2 T02480237
KPKV 180855Z AUTO 00000KT 7SM CLR 25/24 A2996 RMK AO2 T02500239
KPKV 180815Z AUTO 00000KT 2 1/2SM BR CLR 26/25 A2996 RMK AO2 T02560245
KPKV 180755Z AUTO 00000KT 2SM BR CLR 25/24 A2996 RMK AO2 T02540242
KPKV 180735Z AUTO 00000KT 7SM CLR 26/24 A2997 RMK AO2 T02560243
KPKV 180715Z AUTO 00000KT 10SM CLR 25/24 A2997 RMK AO2 T02530240
KPKV 180410Z AUTO 00000KT 10SM CLR 27/25 A2998 RMK AO2 T02650249
KPKV 180315Z AUTO 20003KT 10SM CLR 27/25 A2998 RMK AO2 T02660250
KPKV 180235Z AUTO 17004KT 10SM CLR 27/25 A2997 RMK AO2 T02660248
KPKV 180040Z AUTO 17004KT 10SM CLR 28/25 A2992 RMK AO2 T02820245
KPKV 172355Z AUTO 16004KT 10SM CLR 30/23 A2992 RMK AO2 T02970234 10335 20297
KPKV 172215Z AUTO 12005KT 10SM CLR 32/23 A2992 RMK AO2 T03220225
KPKV 172155Z AUTO 12006KT 10SM CLR 32/22 A2992 RMK AO2 T03170223
KPKV 172135Z AUTO 11005KT 10SM CLR 33/21 A2993 RMK AO2 T03270213
KPKV 172115Z AUTO 09004KT 10SM CLR 33/22 A2993 RMK AO2 T03260221
KPKV 172055Z AUTO 10006KT 10SM CLR 33/24 A2994 RMK AO2 T03310239
KPKV 172035Z AUTO 08003KT 10SM CLR 33/22 A2994 RMK AO2 T03250216
KPKV 172015Z AUTO 15003KT 10SM CLR 32/21 A2995 RMK AO2 T03240214
KPKV 171955Z AUTO 12004KT 10SM CLR 32/22 A2995 RMK AO2 T03200221
KPKV 171935Z AUTO 12003KT 10SM CLR 32/23 A2996 RMK AO2 T03170226
KPKV 171915Z AUTO 11005KT 10SM CLR 32/23 A2997 RMK AO2 T03220230
KPKV 171855Z AUTO 12005KT 10SM CLR 32/23 A2998 RMK AO2 T03190225
KPKV 171835Z AUTO 13003KT 10SM CLR 32/22 A2998 RMK AO2 T03210223
KPKV 171815Z AUTO 08004KT 10SM CLR 33/23 A2998 RMK AO2 T03300229
KPKV 171755Z AUTO 07003KT 10SM CLR 33/23 A2999 RMK AO2 T03290231 10329 20244
KPKV 171735Z AUTO 06004KT 10SM SCT023 33/24 A3000 RMK AO2 T03270241
KPKV 171715Z AUTO 00000KT 10SM SCT023 31/25 A3000 RMK AO2 T03100249
KPKV 171655Z AUTO 06003KT 10SM CLR 31/25 A3000 RMK AO2 T03100248
KPKV 171635Z AUTO 09003KT 10SM SCT014 31/26 A3001 RMK AO2 T03080256
KPKV 171615Z AUTO 00000KT 10SM SCT012 30/26 A3001 RMK AO2 T03000259
KPKV 171555Z AUTO 07003KT 10SM SCT012 30/26 A3001 RMK AO2 T02970261
KPKV 171535Z AUTO 05003KT 10SM SCT010 30/26 A3001 RMK AO2 T02970262
KPKV 171515Z AUTO 07003KT 10SM CLR 30/26 A3000 RMK AO2 T02950264
KPKV 171455Z AUTO 06004KT 10SM CLR 28/27 A3000 RMK AO2 T02810265
KPKV 171435Z AUTO 04003KT 10SM CLR 27/26 A3000 RMK AO2 T02730260
KPKV 171415Z AUTO 05003KT 10SM CLR 27/26 A2999 RMK AO2 T02690258
KPKV 171355Z AUTO 03004KT 10SM SCT016 27/26 A2999 RMK AO2 T02670256
KPKV 171335Z AUTO 05004KT 5SM BR SCT016 27/26 A2999 RMK AO2 T02660257
KPKV 171315Z AUTO 00000KT 5SM BR CLR 26/25 A2998 RMK AO2 T02580249
KPKV 171255Z AUTO 00000KT 5SM BR CLR 25/24 A2997 RMK AO2 T02490239
KPKV 171235Z AUTO 00000KT 5SM BR CLR 25/24 A2997 RMK AO2 T02470237
KPKV 171215Z AUTO 00000KT 5SM BR CLR 25/24 A2997 RMK AO2 T02450235
KPKV 171150Z AUTO 01003KT 7SM CLR 24/23 A2996 RMK AO2 T02430233 10260 20243
KPKV 171135Z AUTO 00000KT 7SM CLR 25/24 A2995 RMK AO2 T02450235
KPKV 171115Z AUTO 00000KT 5SM BR CLR 25/24 A2994 RMK AO2 T02450235
KPKV 171055Z AUTO 03003KT 5SM BR CLR 25/24 A2994 RMK AO2 T02450235
KPKV 171035Z AUTO 36003KT 5SM BR CLR 25/24 A2994 RMK AO2 T02450235
KPKV 171015Z AUTO 00000KT 5SM BR CLR 25/24 A2994 RMK AO2 T02490239
KPKV 170955Z AUTO 00000KT 7SM CLR 25/24 A2993 RMK AO2 T02510241
KPKV 170935Z AUTO 23003KT 7SM CLR 25/24 A2993 RMK AO2 T02500240
KPKV 170900Z AUTO 22003KT 7SM CLR 25/24 A2993 RMK AO2 T02510240